sensor_id;sensor_type;location;lat;lon;timestamp;temperature;humidity
12682;DHT22;6405;59.208;18.216;2023-04-01T00:01:35;-6.50;99.90
12682;DHT22;6405;59.208;18.216;2023-04-01T00:04:01;-6.60;99.90
12682;DHT22;6405;59.208;18.216;2023-04-01T00:06:27;-6.60;99.90
12682;DHT22;6405;59.208;18.216;2023-04-01T00:08:53;-6.70;99.90
12682;DHT22;6405;59.208;18.216;2023-04-01T00:11:19;-6.80;99.90
12682;DHT22;6405;59.208;18.216;2023-04-01T00:13:45;-7.00;99.90
12682;DHT22;6405;59.208;18.216;2023-04-01T00:16:11;-6.90;99.90
12682;DHT22;6405;59.208;18.216;2023-04-01T00:18:38;-7.00;99.90
12682;DHT22;6405;59.208;18.216;2023-04-01T00:21:04;-6.90;99.90
12682;DHT22;6405;59.208;18.216;2023-04-01T00:23:29;-7.10;99.90
12682;DHT22;6405;59.208;18.216;2023-04-01T00:25:55;-7.10;99.90
12682;DHT22;6405;59.208;18.216;2023-04-01T00:28:21;-7.10;99.90
12682;DHT22;6405;59.208;18.216;2023-04-01T00:30:47;-7.10;99.90
12682;DHT22;6405;59.208;18.216;2023-04-01T00:33:13;-7.10;99.90
12682;DHT22;6405;59.208;18.216;2023-04-01T00:35:39;-7.00;99.90
12682;DHT22;6405;59.208;18.216;2023-04-01T00:38:05;-7.10;99.90
12682;DHT22;6405;59.208;18.216;2023-04-01T00:40:38;-7.20;99.90
12682;DHT22;6405;59.208;18.216;2023-04-01T00:43:15;-7.30;99.90
12682;DHT22;6405;59.208;18.216;2023-04-01T00:45:44;-7.30;99.90
12682;DHT22;6405;59.208;18.216;2023-04-01T00:50:40;-7.30;99.90
12682;DHT22;6405;59.208;18.216;2023-04-01T00:53:08;-7.30;99.90
12682;DHT22;6405;59.208;18.216;2023-04-01T00:55:35;-7.30;99.90
12682;DHT22;6405;59.208;18.216;2023-04-01T00:58:05;-7.10;99.90
12682;DHT22;6405;59.208;18.216;2023-04-01T01:00:33;-7.20;99.90
12682;DHT22;6405;59.208;18.216;2023-04-01T01:02:59;-7.10;99.90
12682;DHT22;6405;59.208;18.216;2023-04-01T01:05:44;-7.10;99.90
12682;DHT22;6405;59.208;18.216;2023-04-01T01:08:18;-6.90;99.90
12682;DHT22;6405;59.208;18.216;2023-04-01T01:10:49;-7.00;99.90
12682;DHT22;6405;59.208;18.216;2023-04-01T01:13:22;-7.00;99.90
12682;DHT22;6405;59.208;18.216;2023-04-01T01:16:25;-7.00;99.90
12682;DHT22;6405;59.208;18.216;2023-04-01T01:19:02;-6.90;99.90
12682;DHT22;6405;59.208;18.216;2023-04-01T01:22:01;-7.00;99.90
12682;DHT22;6405;59.208;18.216;2023-04-01T01:24:41;-6.90;99.90
12682;DHT22;6405;59.208;18.216;2023-04-01T01:27:12;-6.90;99.90
12682;DHT22;6405;59.208;18.216;2023-04-01T01:36:10;-6.50;99.90
12682;DHT22;6405;59.208;18.216;2023-04-01T01:38:14;-6.40;99.90
12682;DHT22;6405;59.208;18.216;2023-04-01T01:40:43;-6.40;99.90
12682;DHT22;6405;59.208;18.216;2023-04-01T01:43:12;-6.30;99.90
12682;DHT22;6405;59.208;18.216;2023-04-01T01:45:44;-6.30;99.90
12682;DHT22;6405;59.208;18.216;2023-04-01T01:48:11;-6.20;99.90
12682;DHT22;6405;59.208;18.216;2023-04-01T01:50:37;-6.20;99.90
12682;DHT22;6405;59.208;18.216;2023-04-01T01:53:13;-6.10;99.90
12682;DHT22;6405;59.208;18.216;2023-04-01T01:55:44;-6.10;99.90
12682;DHT22;6405;59.208;18.216;2023-04-01T02:00:52;-6.00;99.90
12682;DHT22;6405;59.208;18.216;2023-04-01T02:03:21;-6.00;99.90
12682;DHT22;6405;59.208;18.216;2023-04-01T02:05:50;-6.10;99.90
12682;DHT22;6405;59.208;18.216;2023-04-01T02:08:26;-6.10;99.90
12682;DHT22;6405;59.208;18.216;2023-04-01T02:11:00;-6.10;99.90
12682;DHT22;6405;59.208;18.216;2023-04-01T02:13:33;-6.10;99.90
12682;DHT22;6405;59.208;18.216;2023-04-01T02:16:03;-6.10;99.90
12682;DHT22;6405;59.208;18.216;2023-04-01T02:18:35;-6.10;99.90
12682;DHT22;6405;59.208;18.216;2023-04-01T02:21:04;-6.10;99.90
12682;DHT22;6405;59.208;18.216;2023-04-01T02:23:33;-6.10;99.90
12682;DHT22;6405;59.208;18.216;2023-04-01T02:25:59;-6.20;99.90
12682;DHT22;6405;59.208;18.216;2023-04-01T02:28:27;-6.20;99.90
12682;DHT22;6405;59.208;18.216;2023-04-01T02:30:53;-6.20;99.90
12682;DHT22;6405;59.208;18.216;2023-04-01T02:33:20;-6.30;99.90
12682;DHT22;6405;59.208;18.216;2023-04-01T02:35:46;-6.20;99.90
12682;DHT22;6405;59.208;18.216;2023-04-01T02:38:13;-6.30;99.90
12682;DHT22;6405;59.208;18.216;2023-04-01T02:40:49;-6.40;99.90
12682;DHT22;6405;59.208;18.216;2023-04-01T02:43:16;-6.50;99.90
12682;DHT22;6405;59.208;18.216;2023-04-01T02:45:42;-6.60;99.90
12682;DHT22;6405;59.208;18.216;2023-04-01T02:48:08;-6.70;99.90
12682;DHT22;6405;59.208;18.216;2023-04-01T02:50:34;-6.80;99.90
12682;DHT22;6405;59.208;18.216;2023-04-01T02:53:01;-6.90;99.90
12682;DHT22;6405;59.208;18.216;2023-04-01T02:55:29;-7.00;99.90
12682;DHT22;6405;59.208;18.216;2023-04-01T02:57:55;-7.00;99.90
12682;DHT22;6405;59.208;18.216;2023-04-01T03:00:21;-7.10;99.90
12682;DHT22;6405;59.208;18.216;2023-04-01T03:02:49;-7.20;99.90
12682;DHT22;6405;59.208;18.216;2023-04-01T03:05:15;-7.30;99.90
12682;DHT22;6405;59.208;18.216;2023-04-01T03:07:41;-7.30;99.90
12682;DHT22;6405;59.208;18.216;2023-04-01T03:10:07;-7.40;99.90
12682;DHT22;6405;59.208;18.216;2023-04-01T03:12:33;-7.40;99.90
12682;DHT22;6405;59.208;18.216;2023-04-01T03:14:58;-7.40;99.90
12682;DHT22;6405;59.208;18.216;2023-04-01T03:17:24;-7.40;99.90
12682;DHT22;6405;59.208;18.216;2023-04-01T03:19:50;-7.40;99.90
12682;DHT22;6405;59.208;18.216;2023-04-01T03:22:16;-7.50;99.90
12682;DHT22;6405;59.208;18.216;2023-04-01T03:24:41;-7.50;99.90
12682;DHT22;6405;59.208;18.216;2023-04-01T03:27:07;-7.60;99.90
12682;DHT22;6405;59.208;18.216;2023-04-01T03:29:32;-7.70;99.90
12682;DHT22;6405;59.208;18.216;2023-04-01T03:31:58;-7.70;99.90
12682;DHT22;6405;59.208;18.216;2023-04-01T03:34:25;-7.70;99.90
12682;DHT22;6405;59.208;18.216;2023-04-01T03:36:51;-7.70;99.90
12682;DHT22;6405;59.208;18.216;2023-04-01T03:39:17;-7.80;99.90
12682;DHT22;6405;59.208;18.216;2023-04-01T03:41:46;-7.80;99.90
12682;DHT22;6405;59.208;18.216;2023-04-01T03:44:12;-7.80;99.90
12682;DHT22;6405;59.208;18.216;2023-04-01T03:46:37;-7.80;99.90
12682;DHT22;6405;59.208;18.216;2023-04-01T03:49:07;-7.90;99.90
12682;DHT22;6405;59.208;18.216;2023-04-01T03:51:41;-7.90;99.90
12682;DHT22;6405;59.208;18.216;2023-04-01T03:54:07;-7.90;99.90
12682;DHT22;6405;59.208;18.216;2023-04-01T03:56:32;-8.00;99.90
12682;DHT22;6405;59.208;18.216;2023-04-01T03:59:01;-8.00;99.90
12682;DHT22;6405;59.208;18.216;2023-04-01T04:01:27;-8.00;99.90
12682;DHT22;6405;59.208;18.216;2023-04-01T04:03:53;-8.00;99.90
12682;DHT22;6405;59.208;18.216;2023-04-01T04:06:19;-8.10;99.90
12682;DHT22;6405;59.208;18.216;2023-04-01T04:08:45;-8.10;99.90
12682;DHT22;6405;59.208;18.216;2023-04-01T04:11:11;-8.10;99.90
12682;DHT22;6405;59.208;18.216;2023-04-01T04:13:36;-8.10;99.90
12682;DHT22;6405;59.208;18.216;2023-04-01T04:16:03;-8.20;99.90
12682;DHT22;6405;59.208;18.216;2023-04-01T04:18:29;-8.20;99.90
12682;DHT22;6405;59.208;18.216;2023-04-01T04:20:55;-8.30;99.90
12682;DHT22;6405;59.208;18.216;2023-04-01T04:23:20;-8.20;99.90
12682;DHT22;6405;59.208;18.216;2023-04-01T04:26:06;-8.20;99.90
12682;DHT22;6405;59.208;18.216;2023-04-01T04:28:33;-8.20;99.90
12682;DHT22;6405;59.208;18.216;2023-04-01T04:30:59;-8.20;99.90
12682;DHT22;6405;59.208;18.216;2023-04-01T04:33:25;-8.20;99.90
12682;DHT22;6405;59.208;18.216;2023-04-01T04:35:51;-8.30;99.90
12682;DHT22;6405;59.208;18.216;2023-04-01T04:38:17;-8.30;99.90
12682;DHT22;6405;59.208;18.216;2023-04-01T04:40:43;-8.30;99.90
12682;DHT22;6405;59.208;18.216;2023-04-01T04:43:14;-8.30;99.90
12682;DHT22;6405;59.208;18.216;2023-04-01T04:45:40;-8.30;99.90
12682;DHT22;6405;59.208;18.216;2023-04-01T04:48:10;-8.30;99.90
12682;DHT22;6405;59.208;18.216;2023-04-01T04:50:36;-8.30;99.90
12682;DHT22;6405;59.208;18.216;2023-04-01T04:53:02;-8.30;99.90
12682;DHT22;6405;59.208;18.216;2023-04-01T04:55:28;-8.30;99.90
12682;DHT22;6405;59.208;18.216;2023-04-01T04:57:54;-8.30;99.90
12682;DHT22;6405;59.208;18.216;2023-04-01T05:00:19;-8.30;99.90
12682;DHT22;6405;59.208;18.216;2023-04-01T05:02:46;-8.20;99.90
12682;DHT22;6405;59.208;18.216;2023-04-01T05:05:11;-8.20;99.90
12682;DHT22;6405;59.208;18.216;2023-04-01T05:07:37;-8.10;99.90
12682;DHT22;6405;59.208;18.216;2023-04-01T05:10:03;-8.10;99.90
12682;DHT22;6405;59.208;18.216;2023-04-01T05:12:29;-8.10;99.90
12682;DHT22;6405;59.208;18.216;2023-04-01T05:14:54;-8.00;99.90
12682;DHT22;6405;59.208;18.216;2023-04-01T05:17:20;-7.90;99.90
12682;DHT22;6405;59.208;18.216;2023-04-01T05:19:46;-7.90;99.90
12682;DHT22;6405;59.208;18.216;2023-04-01T05:22:11;-7.80;99.90
12682;DHT22;6405;59.208;18.216;2023-04-01T05:24:37;-7.80;99.90
12682;DHT22;6405;59.208;18.216;2023-04-01T05:27:03;-7.70;99.90
12682;DHT22;6405;59.208;18.216;2023-04-01T05:29:28;-7.70;99.90
12682;DHT22;6405;59.208;18.216;2023-04-01T05:31:54;-7.60;99.90
12682;DHT22;6405;59.208;18.216;2023-04-01T05:34:20;-7.40;99.90
12682;DHT22;6405;59.208;18.216;2023-04-01T05:36:45;-7.40;99.90
12682;DHT22;6405;59.208;18.216;2023-04-01T05:39:11;-7.20;99.90
12682;DHT22;6405;59.208;18.216;2023-04-01T05:41:38;-7.10;99.90
12682;DHT22;6405;59.208;18.216;2023-04-01T05:44:04;-6.70;99.90
12682;DHT22;6405;59.208;18.216;2023-04-01T05:46:31;-6.80;99.90
12682;DHT22;6405;59.208;18.216;2023-04-01T05:48:57;-6.60;99.90
12682;DHT22;6405;59.208;18.216;2023-04-01T05:51:23;-6.30;99.90
12682;DHT22;6405;59.208;18.216;2023-04-01T05:53:48;-6.10;99.90
12682;DHT22;6405;59.208;18.216;2023-04-01T05:56:14;-5.90;99.90
12682;DHT22;6405;59.208;18.216;2023-04-01T05:58:40;-5.60;99.90
12682;DHT22;6405;59.208;18.216;2023-04-01T06:01:08;-5.40;99.90
12682;DHT22;6405;59.208;18.216;2023-04-01T06:03:34;-5.20;99.90
12682;DHT22;6405;59.208;18.216;2023-04-01T06:06:00;-5.10;99.90
12682;DHT22;6405;59.208;18.216;2023-04-01T06:08:27;-4.80;99.90
12682;DHT22;6405;59.208;18.216;2023-04-01T06:14:06;-4.40;99.90
12682;DHT22;6405;59.208;18.216;2023-04-01T06:16:55;-4.30;99.90
12682;DHT22;6405;59.208;18.216;2023-04-01T06:33:25;-3.20;99.90
12682;DHT22;6405;59.208;18.216;2023-04-01T06:42:07;-2.80;99.90
12682;DHT22;6405;59.208;18.216;2023-04-01T06:47:40;-2.50;99.90
12682;DHT22;6405;59.208;18.216;2023-04-01T06:50:26;-2.30;99.90
12682;DHT22;6405;59.208;18.216;2023-04-01T06:58:23;-1.90;99.90
12682;DHT22;6405;59.208;18.216;2023-04-01T07:00:56;-1.80;99.90
12682;DHT22;6405;59.208;18.216;2023-04-01T07:03:45;-1.60;99.90
12682;DHT22;6405;59.208;18.216;2023-04-01T07:06:23;-1.50;99.90
12682;DHT22;6405;59.208;18.216;2023-04-01T07:08:49;-1.50;99.90
12682;DHT22;6405;59.208;18.216;2023-04-01T07:11:29;-1.40;99.90
12682;DHT22;6405;59.208;18.216;2023-04-01T07:14:04;-1.30;99.90
12682;DHT22;6405;59.208;18.216;2023-04-01T07:16:34;-1.10;99.90
12682;DHT22;6405;59.208;18.216;2023-04-01T07:19:11;-1.00;99.90
12682;DHT22;6405;59.208;18.216;2023-04-01T07:21:51;-0.90;99.90
12682;DHT22;6405;59.208;18.216;2023-04-01T07:24:29;-0.80;99.90
12682;DHT22;6405;59.208;18.216;2023-04-01T07:26:57;-0.80;99.90
12682;DHT22;6405;59.208;18.216;2023-04-01T07:29:25;-0.70;99.90
12682;DHT22;6405;59.208;18.216;2023-04-01T07:32:22;-0.60;99.90
12682;DHT22;6405;59.208;18.216;2023-04-01T07:48:47;-0.10;99.90
12682;DHT22;6405;59.208;18.216;2023-04-01T07:51:31;0.00;99.90
12682;DHT22;6405;59.208;18.216;2023-04-01T07:58:21;0.20;99.90
12682;DHT22;6405;59.208;18.216;2023-04-01T08:00:30;0.30;99.90
12682;DHT22;6405;59.208;18.216;2023-04-01T08:03:21;0.40;99.90
12682;DHT22;6405;59.208;18.216;2023-04-01T08:06:00;0.50;99.90
12682;DHT22;6405;59.208;18.216;2023-04-01T08:08:56;0.70;99.90
12682;DHT22;6405;59.208;18.216;2023-04-01T08:17:05;1.30;99.90
12682;DHT22;6405;59.208;18.216;2023-04-01T08:22:33;1.60;99.90
12682;DHT22;6405;59.208;18.216;2023-04-01T08:25:05;1.70;99.90
12682;DHT22;6405;59.208;18.216;2023-04-01T08:28:19;1.80;99.90
12682;DHT22;6405;59.208;18.216;2023-04-01T08:30:58;1.70;99.90
12682;DHT22;6405;59.208;18.216;2023-04-01T08:33:29;1.70;99.90
12682;DHT22;6405;59.208;18.216;2023-04-01T08:36:10;1.70;99.90
12682;DHT22;6405;59.208;18.216;2023-04-01T08:38:49;1.80;99.90
12682;DHT22;6405;59.208;18.216;2023-04-01T08:44:20;1.90;99.90
12682;DHT22;6405;59.208;18.216;2023-04-01T08:47:20;2.00;99.90
12682;DHT22;6405;59.208;18.216;2023-04-01T08:50:16;2.10;99.90
12682;DHT22;6405;59.208;18.216;2023-04-01T08:52:57;2.20;99.90
12682;DHT22;6405;59.208;18.216;2023-04-01T09:04:05;2.90;99.90
12682;DHT22;6405;59.208;18.216;2023-04-01T09:06:48;3.10;99.90
12682;DHT22;6405;59.208;18.216;2023-04-01T09:09:27;3.30;99.90
12682;DHT22;6405;59.208;18.216;2023-04-01T09:12:02;3.30;99.90
12682;DHT22;6405;59.208;18.216;2023-04-01T09:15:07;3.30;99.90
12682;DHT22;6405;59.208;18.216;2023-04-01T09:28:19;3.30;99.90
12682;DHT22;6405;59.208;18.216;2023-04-01T09:44:19;3.20;99.90
12682;DHT22;6405;59.208;18.216;2023-04-01T09:46:51;3.20;99.90
12682;DHT22;6405;59.208;18.216;2023-04-01T09:52:30;3.30;99.90
12682;DHT22;6405;59.208;18.216;2023-04-01T10:00:50;3.60;99.90
12682;DHT22;6405;59.208;18.216;2023-04-01T10:11:22;3.90;99.90
12682;DHT22;6405;59.208;18.216;2023-04-01T10:16:51;4.10;99.90
12682;DHT22;6405;59.208;18.216;2023-04-01T10:56:55;5.00;99.90
12682;DHT22;6405;59.208;18.216;2023-04-01T11:19:55;5.40;99.90
12682;DHT22;6405;59.208;18.216;2023-04-01T11:27:40;5.20;99.90
12682;DHT22;6405;59.208;18.216;2023-04-01T11:30:31;5.10;99.90
12682;DHT22;6405;59.208;18.216;2023-04-01T11:38:36;5.40;99.90
12682;DHT22;6405;59.208;18.216;2023-04-01T11:51:54;5.50;99.90
12682;DHT22;6405;59.208;18.216;2023-04-01T11:54:38;5.40;99.90
12682;DHT22;6405;59.208;18.216;2023-04-01T12:09:01;5.50;99.90
12682;DHT22;6405;59.208;18.216;2023-04-01T12:11:52;5.70;99.90
12682;DHT22;6405;59.208;18.216;2023-04-01T12:14:31;5.80;99.90
12682;DHT22;6405;59.208;18.216;2023-04-01T12:19:43;5.70;99.90
12682;DHT22;6405;59.208;18.216;2023-04-01T12:22:32;5.70;99.90
12682;DHT22;6405;59.208;18.216;2023-04-01T12:31:01;5.80;99.90
12682;DHT22;6405;59.208;18.216;2023-04-01T12:37:10;5.70;99.90
12682;DHT22;6405;59.208;18.216;2023-04-01T12:45:07;5.60;99.90
12682;DHT22;6405;59.208;18.216;2023-04-01T12:47:58;5.80;99.90
12682;DHT22;6405;59.208;18.216;2023-04-01T12:55:49;6.00;99.90
12682;DHT22;6405;59.208;18.216;2023-04-01T12:58:23;5.90;99.90
12682;DHT22;6405;59.208;18.216;2023-04-01T13:01:09;5.90;99.90
12682;DHT22;6405;59.208;18.216;2023-04-01T13:15:54;5.70;99.90
12682;DHT22;6405;59.208;18.216;2023-04-01T13:21:25;5.70;99.90
12682;DHT22;6405;59.208;18.216;2023-04-01T13:27:04;5.70;99.90
12682;DHT22;6405;59.208;18.216;2023-04-01T13:29:38;5.60;99.90
12682;DHT22;6405;59.208;18.216;2023-04-01T13:43:31;5.60;99.90
12682;DHT22;6405;59.208;18.216;2023-04-01T13:54:59;5.60;99.90
12682;DHT22;6405;59.208;18.216;2023-04-01T14:00:42;5.50;99.90
12682;DHT22;6405;59.208;18.216;2023-04-01T14:03:28;5.40;99.90
12682;DHT22;6405;59.208;18.216;2023-04-01T14:11:38;5.20;99.90
12682;DHT22;6405;59.208;18.216;2023-04-01T14:14:18;5.30;99.90
12682;DHT22;6405;59.208;18.216;2023-04-01T14:31:22;4.90;99.90
12682;DHT22;6405;59.208;18.216;2023-04-01T14:34:15;4.90;99.90
12682;DHT22;6405;59.208;18.216;2023-04-01T14:40:03;4.80;99.90
12682;DHT22;6405;59.208;18.216;2023-04-01T14:53:38;4.60;99.90
12682;DHT22;6405;59.208;18.216;2023-04-01T14:56:07;4.60;99.90
12682;DHT22;6405;59.208;18.216;2023-04-01T14:58:44;4.60;99.90
12682;DHT22;6405;59.208;18.216;2023-04-01T15:04:34;4.40;99.90
12682;DHT22;6405;59.208;18.216;2023-04-01T15:12:38;4.10;99.90
12682;DHT22;6405;59.208;18.216;2023-04-01T15:15:29;4.00;99.90
12682;DHT22;6405;59.208;18.216;2023-04-01T15:23:27;3.90;99.90
12682;DHT22;6405;59.208;18.216;2023-04-01T15:36:58;3.60;99.90
12682;DHT22;6405;59.208;18.216;2023-04-01T15:39:45;3.50;99.90
12682;DHT22;6405;59.208;18.216;2023-04-01T15:45:18;3.40;99.90
12682;DHT22;6405;59.208;18.216;2023-04-01T15:48:14;3.40;99.90
12682;DHT22;6405;59.208;18.216;2023-04-01T16:05:37;2.90;99.90
12682;DHT22;6405;59.208;18.216;2023-04-01T16:13:55;2.70;99.90
12682;DHT22;6405;59.208;18.216;2023-04-01T16:16:38;2.60;99.90
12682;DHT22;6405;59.208;18.216;2023-04-01T16:19:32;2.50;99.90
12682;DHT22;6405;59.208;18.216;2023-04-01T16:30:03;2.40;99.90
12682;DHT22;6405;59.208;18.216;2023-04-01T16:32:49;2.30;99.90
12682;DHT22;6405;59.208;18.216;2023-04-01T16:35:29;2.20;99.90
12682;DHT22;6405;59.208;18.216;2023-04-01T16:43:48;2.00;99.90
12682;DHT22;6405;59.208;18.216;2023-04-01T16:46:38;1.90;99.90
12682;DHT22;6405;59.208;18.216;2023-04-01T16:49:23;1.80;99.90
12682;DHT22;6405;59.208;18.216;2023-04-01T16:57:14;1.60;99.90
12682;DHT22;6405;59.208;18.216;2023-04-01T17:00:22;1.50;99.90
12682;DHT22;6405;59.208;18.216;2023-04-01T17:05:18;1.30;99.90
12682;DHT22;6405;59.208;18.216;2023-04-01T17:08:00;1.30;99.90
12682;DHT22;6405;59.208;18.216;2023-04-01T17:16:20;1.10;99.90
12682;DHT22;6405;59.208;18.216;2023-04-01T17:24:31;0.90;99.90
12682;DHT22;6405;59.208;18.216;2023-04-01T17:35:22;0.50;99.90
12682;DHT22;6405;59.208;18.216;2023-04-01T17:58:07;-0.30;99.90
12682;DHT22;6405;59.208;18.216;2023-04-01T18:00:57;-0.40;99.90
12682;DHT22;6405;59.208;18.216;2023-04-01T18:06:34;-0.60;99.90
12682;DHT22;6405;59.208;18.216;2023-04-01T18:12:11;-0.70;99.90
12682;DHT22;6405;59.208;18.216;2023-04-01T18:20:43;-0.80;99.90
12682;DHT22;6405;59.208;18.216;2023-04-01T18:25:48;-0.80;99.90
12682;DHT22;6405;59.208;18.216;2023-04-01T18:28:38;-0.80;99.90
12682;DHT22;6405;59.208;18.216;2023-04-01T18:31:19;-0.80;99.90
12682;DHT22;6405;59.208;18.216;2023-04-01T18:34:13;-0.70;99.90
12682;DHT22;6405;59.208;18.216;2023-04-01T18:39:17;-0.90;99.90
12682;DHT22;6405;59.208;18.216;2023-04-01T18:44:48;-1.00;99.90
12682;DHT22;6405;59.208;18.216;2023-04-01T18:50:06;-1.10;99.90
12682;DHT22;6405;59.208;18.216;2023-04-01T18:52:40;-1.20;99.90
12682;DHT22;6405;59.208;18.216;2023-04-01T18:55:33;-1.20;99.90
12682;DHT22;6405;59.208;18.216;2023-04-01T18:58:19;-1.20;99.90
12682;DHT22;6405;59.208;18.216;2023-04-01T19:01:12;-1.30;99.90
12682;DHT22;6405;59.208;18.216;2023-04-01T19:06:41;-1.40;99.90
12682;DHT22;6405;59.208;18.216;2023-04-01T19:12:03;-1.50;99.90
12682;DHT22;6405;59.208;18.216;2023-04-01T19:14:47;-1.50;99.90
12682;DHT22;6405;59.208;18.216;2023-04-01T19:22:57;-1.70;99.90
12682;DHT22;6405;59.208;18.216;2023-04-01T19:33:37;-1.90;99.90
12682;DHT22;6405;59.208;18.216;2023-04-01T19:53:11;-1.90;99.90
12682;DHT22;6405;59.208;18.216;2023-04-01T19:56:12;-2.00;99.90
12682;DHT22;6405;59.208;18.216;2023-04-01T19:58:54;-2.00;99.90
12682;DHT22;6405;59.208;18.216;2023-04-01T20:04:17;-2.00;99.90
12682;DHT22;6405;59.208;18.216;2023-04-01T20:09:44;-2.10;99.90
12682;DHT22;6405;59.208;18.216;2023-04-01T20:15:23;-2.10;99.90
12682;DHT22;6405;59.208;18.216;2023-04-01T20:17:54;-2.20;99.90
12682;DHT22;6405;59.208;18.216;2023-04-01T20:20:25;-2.20;99.90
12682;DHT22;6405;59.208;18.216;2023-04-01T20:23:06;-2.30;99.90
12682;DHT22;6405;59.208;18.216;2023-04-01T20:28:21;-2.40;99.90
12682;DHT22;6405;59.208;18.216;2023-04-01T20:31:17;-2.40;99.90
12682;DHT22;6405;59.208;18.216;2023-04-01T20:34:11;-2.40;99.90
12682;DHT22;6405;59.208;18.216;2023-04-01T20:40:03;-2.50;99.90
12682;DHT22;6405;59.208;18.216;2023-04-01T20:45:51;-2.50;99.90
12682;DHT22;6405;59.208;18.216;2023-04-01T20:51:15;-2.60;99.90
12682;DHT22;6405;59.208;18.216;2023-04-01T20:57:13;-2.60;99.90
12682;DHT22;6405;59.208;18.216;2023-04-01T20:59:48;-2.60;99.90
12682;DHT22;6405;59.208;18.216;2023-04-01T21:08:07;-2.70;99.90
12682;DHT22;6405;59.208;18.216;2023-04-01T21:10:57;-2.70;99.90
12682;DHT22;6405;59.208;18.216;2023-04-01T21:13:34;-2.70;99.90
12682;DHT22;6405;59.208;18.216;2023-04-01T21:18:51;-2.70;99.90
12682;DHT22;6405;59.208;18.216;2023-04-01T21:43:54;-3.10;99.90
12682;DHT22;6405;59.208;18.216;2023-04-01T21:55:01;-3.10;99.90
12682;DHT22;6405;59.208;18.216;2023-04-01T21:58:14;-3.10;99.90
12682;DHT22;6405;59.208;18.216;2023-04-01T22:09:27;-3.10;99.90
12682;DHT22;6405;59.208;18.216;2023-04-01T22:12:02;-3.10;99.90
12682;DHT22;6405;59.208;18.216;2023-04-01T22:14:48;-3.10;99.90
12682;DHT22;6405;59.208;18.216;2023-04-01T22:17:51;-3.10;99.90
12682;DHT22;6405;59.208;18.216;2023-04-01T22:21:03;-3.20;99.90
12682;DHT22;6405;59.208;18.216;2023-04-01T22:28:29;-3.10;99.90
12682;DHT22;6405;59.208;18.216;2023-04-01T22:31:01;-3.20;99.90
12682;DHT22;6405;59.208;18.216;2023-04-01T22:33:38;-3.30;99.90
12682;DHT22;6405;59.208;18.216;2023-04-01T22:36:23;-3.20;99.90
12682;DHT22;6405;59.208;18.216;2023-04-01T22:43:54;-3.20;99.90
12682;DHT22;6405;59.208;18.216;2023-04-01T22:49:56;-3.30;99.90
12682;DHT22;6405;59.208;18.216;2023-04-01T22:52:29;-3.30;99.90
12682;DHT22;6405;59.208;18.216;2023-04-01T22:55:00;-3.30;99.90
12682;DHT22;6405;59.208;18.216;2023-04-01T23:00:23;-3.50;99.90
12682;DHT22;6405;59.208;18.216;2023-04-01T23:03:21;-3.50;99.90
12682;DHT22;6405;59.208;18.216;2023-04-01T23:06:01;-3.60;99.90
12682;DHT22;6405;59.208;18.216;2023-04-01T23:11:44;-3.60;99.90
12682;DHT22;6405;59.208;18.216;2023-04-01T23:19:27;-3.60;99.90
12682;DHT22;6405;59.208;18.216;2023-04-01T23:22:04;-3.60;99.90
12682;DHT22;6405;59.208;18.216;2023-04-01T23:24:41;-3.60;99.90
12682;DHT22;6405;59.208;18.216;2023-04-01T23:27:19;-3.70;99.90
12682;DHT22;6405;59.208;18.216;2023-04-01T23:29:46;-3.70;99.90
12682;DHT22;6405;59.208;18.216;2023-04-01T23:32:19;-3.70;99.90
12682;DHT22;6405;59.208;18.216;2023-04-01T23:34:49;-3.70;99.90
12682;DHT22;6405;59.208;18.216;2023-04-01T23:37:16;-3.70;99.90
12682;DHT22;6405;59.208;18.216;2023-04-01T23:39:46;-3.80;99.90
12682;DHT22;6405;59.208;18.216;2023-04-01T23:42:40;-3.80;99.90
12682;DHT22;6405;59.208;18.216;2023-04-01T23:45:13;-3.90;99.90
12682;DHT22;6405;59.208;18.216;2023-04-01T23:47:40;-3.90;99.90
12682;DHT22;6405;59.208;18.216;2023-04-01T23:50:21;-4.00;99.90
12682;DHT22;6405;59.208;18.216;2023-04-01T23:52:58;-4.00;99.90
12682;DHT22;6405;59.208;18.216;2023-04-01T23:55:31;-4.10;99.90
